Time,TemperatureF,DewpointF,PressureIn,WindDirection,WindDirectionDegrees,WindSpeedMPH,WindSpeedGustMPH,Humidity,HourlyPrecipIn,Conditions,Clouds,dailyrainin,SoftwareType,DateUTC
2013-07-21 00:00:00,64.6,55.3,29.95,ESE,112,4.3,4.3,72,0.00,CLR,CLR,0.00,WeatherDisplay:10.37,2013-07-21 05:00:00,
2013-07-21 00:06:00,64.6,55.7,29.95,NE,45,1.5,3.5,73,0.00,CLR,CLR,0.00,WeatherDisplay:10.37,2013-07-21 05:06:00,
2013-07-21 00:11:00,64.6,55.7,29.95,NE,45,1.3,3.6,73,0.00,CLR,CLR,0.00,WeatherDisplay:10.37,2013-07-21 05:11:00,
2013-07-21 00:16:00,64.6,55.7,29.95,East,90,3.2,4.2,73,0.00,CLR,CLR,0.00,WeatherDisplay:10.37,2013-07-21 05:16:00,
2013-07-21 00:21:00,64.6,55.7,29.95,ENE,68,5.9,6.9,73,0.00,CLR,CLR,0.00,WeatherDisplay:10.37,2013-07-21 05:21:00,
2013-07-21 00:27:00,64.6,56.1,29.95,ESE,112,4.1,4.1,74,0.00,CLR,CLR,0.00,WeatherDisplay:10.37,2013-07-21 05:27:00,
2013-07-21 00:32:00,64.4,55.9,29.95,ENE,68,3.9,5.8,74,0.00,CLR,CLR,0.00,WeatherDisplay:10.37,2013-07-21 05:32:00,
2013-07-21 00:37:00,64.4,55.9,29.95,East,90,1.8,3.5,74,0.00,CLR,CLR,0.00,WeatherDisplay:10.37,2013-07-21 05:37:00,
2013-07-21 00:42:00,64.4,55.9,29.95,East,90,3.5,4.6,74,0.00,CLR,CLR,0.00,WeatherDisplay:10.37,2013-07-21 05:42:00,
2013-07-21 00:47:00,64.2,55.8,29.95,ESE,112,3.7,4.6,74,0.00,CLR,CLR,0.00,WeatherDisplay:10.37,2013-07-21 05:47:00,
2013-07-21 00:53:00,64.2,55.8,29.95,East,90,5.6,6.9,74,0.00,CLR,CLR,0.00,WeatherDisplay:10.37,2013-07-21 05:53:00,
2013-07-21 00:58:00,64.2,55.8,29.95,East,90,4.7,6.9,74,0.00,CLR,CLR,0.00,WeatherDisplay:10.37,2013-07-21 05:58:00,
2013-07-21 01:03:00,64.2,55.8,29.95,ESE,112,3.1,4.6,74,0.00,CLR,CLR,0.00,WeatherDisplay:10.37,2013-07-21 06:03:00,
2013-07-21 01:08:00,64.0,55.2,29.95,NE,45,2.3,4.6,73,0.00,CLR,CLR,0.00,WeatherDisplay:10.37,2013-07-21 06:08:00,
2013-07-21 01:13:00,64.0,55.2,29.95,SE,135,4.7,8.1,73,0.00,CLR,CLR,0.00,WeatherDisplay:10.37,2013-07-21 06:13:00,
2013-07-21 01:18:00,63.7,54.9,29.94,ENE,68,3.1,6.9,73,0.00,CLR,CLR,0.00,WeatherDisplay:10.37,2013-07-21 06:18:00,
2013-07-21 01:23:00,63.5,54.7,29.94,ESE,112,1.8,4.7,73,0.00,CLR,CLR,0.00,WeatherDisplay:10.37,2013-07-21 06:23:00,
2013-07-21 01:28:00,63.3,54.5,29.94,ENE,68,2.1,4.6,73,0.00,CLR,CLR,0.00,WeatherDisplay:10.37,2013-07-21 06:28:00,
2013-07-21 01:33:00,63.1,54.3,29.94,ESE,112,5.7,6.9,73,0.00,CLR,CLR,0.00,WeatherDisplay:10.37,2013-07-21 06:33:00,
2013-07-21 01:39:00,63.0,54.5,29.93,East,90,2.8,6.3,74,0.00,CLR,CLR,0.00,WeatherDisplay:10.37,2013-07-21 06:39:00,
2013-07-21 01:44:00,62.8,54.4,29.93,East,90,7.0,9.2,74,0.00,CLR,CLR,0.00,WeatherDisplay:10.37,2013-07-21 06:44:00,
2013-07-21 01:49:00,62.4,54.0,29.93,ENE,68,5.0,9.2,74,0.00,CLR,CLR,0.00,WeatherDisplay:10.37,2013-07-21 06:49:00,
2013-07-21 01:55:00,62.4,54.0,29.93,East,90,6.4,9.2,74,0.00,CLR,CLR,0.00,WeatherDisplay:10.37,2013-07-21 06:55:00,
2013-07-21 02:00:00,62.2,53.8,29.93,ESE,112,6.1,8.1,74,0.00,CLR,CLR,0.00,WeatherDisplay:10.37,2013-07-21 07:00:00,
2013-07-21 02:05:00,62.1,53.7,29.94,SE,135,9.1,10.4,74,0.00,CLR,CLR,0.00,WeatherDisplay:10.37,2013-07-21 07:05:00,
2013-07-21 02:10:00,61.9,53.5,29.94,ESE,112,8.3,8.3,74,0.00,CLR,CLR,0.00,WeatherDisplay:10.37,2013-07-21 07:10:00,
2013-07-21 02:15:00,61.7,53.3,29.94,ESE,112,3.4,5.8,74,0.00,CLR,CLR,0.00,WeatherDisplay:10.37,2013-07-21 07:15:00,
2013-07-21 02:21:00,61.5,53.2,29.94,ESE,112,2.8,6.9,74,0.00,CLR,CLR,0.00,WeatherDisplay:10.37,2013-07-21 07:21:00,
2013-07-21 02:26:00,61.5,53.5,29.95,East,90,4.7,6.9,75,0.00,CLR,CLR,0.00,WeatherDisplay:10.37,2013-07-21 07:26:00,
2013-07-21 02:31:00,61.3,53.3,29.94,ESE,112,5.0,10.5,75,0.00,CLR,CLR,0.00,WeatherDisplay:10.37,2013-07-21 07:31:00,
2013-07-21 02:37:00,61.3,53.7,29.92,East,90,4.9,6.9,76,0.00,CLR,CLR,0.00,WeatherDisplay:10.37,2013-07-21 07:37:00,
2013-07-21 03:04:00,60.6,53.0,29.92,NE,45,6.2,6.9,76,0.00,CLR,CLR,0.00,WeatherDisplay:10.37,2013-07-21 08:04:00,
2013-07-21 03:09:00,60.6,53.0,29.92,East,90,4.8,8.1,76,0.00,CLR,CLR,0.00,WeatherDisplay:10.37,2013-07-21 08:09:00,
2013-07-21 03:14:00,60.6,53.0,29.92,ESE,112,8.4,11.5,76,0.00,CLR,CLR,0.00,WeatherDisplay:10.37,2013-07-21 08:14:00,
2013-07-21 03:19:00,60.4,52.8,29.92,ESE,112,6.9,8.1,76,0.00,CLR,CLR,0.00,WeatherDisplay:10.37,2013-07-21 08:19:00,
2013-07-21 03:25:00,60.4,53.2,29.92,ESE,112,4.2,9.2,77,0.00,CLR,CLR,0.00,WeatherDisplay:10.37,2013-07-21 08:25:00,
2013-07-21 03:30:00,60.4,52.8,29.92,ESE,112,5.7,8.1,76,0.00,CLR,CLR,0.00,WeatherDisplay:10.37,2013-07-21 08:30:00,
2013-07-21 03:35:00,60.3,53.0,29.92,ENE,68,4.8,6.9,77,0.00,CLR,CLR,0.00,WeatherDisplay:10.37,2013-07-21 08:35:00,
2013-07-21 03:40:00,60.1,52.8,29.92,ESE,112,3.8,3.8,77,0.00,CLR,CLR,0.00,WeatherDisplay:10.37,2013-07-21 08:40:00,
2013-07-21 03:45:00,60.1,52.8,29.92,ESE,112,3.8,6.7,77,0.00,CLR,CLR,0.00,WeatherDisplay:10.37,2013-07-21 08:45:00,
2013-07-21 03:51:00,60.1,52.8,29.92,ENE,68,5.4,8.1,77,0.00,CLR,CLR,0.00,WeatherDisplay:10.37,2013-07-21 08:51:00,
2013-07-21 03:56:00,60.1,52.8,29.92,ESE,112,4.3,5.4,77,0.00,CLR,CLR,0.00,WeatherDisplay:10.37,2013-07-21 08:56:00,
2013-07-21 04:01:00,59.9,52.7,29.92,East,90,6.2,6.9,77,0.00,CLR,CLR,0.00,WeatherDisplay:10.37,2013-07-21 09:01:00,
2013-07-21 04:06:00,59.9,52.7,29.92,ENE,68,4.0,4.6,77,0.00,CLR,CLR,0.00,WeatherDisplay:10.37,2013-07-21 09:06:00,
2013-07-21 04:12:00,59.7,52.5,29.92,ESE,112,4.1,6.9,77,0.00,CLR,CLR,0.00,WeatherDisplay:10.37,2013-07-21 09:12:00,
2013-07-21 04:17:00,59.5,52.3,29.91,SSE,158,6.2,8.1,77,0.00,CLR,CLR,0.00,WeatherDisplay:10.37,2013-07-21 09:17:00,
2013-07-21 04:22:00,59.5,52.3,29.91,East,90,4.9,5.8,77,0.00,CLR,CLR,0.00,WeatherDisplay:10.37,2013-07-21 09:22:00,
2013-07-21 04:27:00,59.5,52.3,29.91,ESE,112,6.0,6.0,77,0.00,CLR,CLR,0.00,WeatherDisplay:10.37,2013-07-21 09:27:00,
2013-07-21 04:33:00,59.4,52.1,29.91,East,90,5.2,6.9,77,0.00,CLR,CLR,0.00,WeatherDisplay:10.37,2013-07-21 09:33:00,
2013-07-21 04:38:00,59.4,51.8,29.92,ESE,112,5.3,5.8,76,0.00,CLR,CLR,0.00,WeatherDisplay:10.37,2013-07-21 09:38:00,
2013-07-21 04:43:00,59.2,51.6,29.92,ESE,112,3.9,6.9,76,0.00,CLR,CLR,0.00,WeatherDisplay:10.37,2013-07-21 09:43:00,
2013-07-21 04:48:00,59.2,51.6,29.92,ESE,112,5.7,6.9,76,0.00,CLR,CLR,0.00,WeatherDisplay:10.37,2013-07-21 09:48:00,
2013-07-21 04:53:00,59.0,51.4,29.92,ESE,112,4.8,5.8,76,0.00,CLR,CLR,0.00,WeatherDisplay:10.37,2013-07-21 09:53:00,
2013-07-21 04:59:00,58.8,51.3,29.92,East,90,4.4,8.1,76,0.00,CLR,CLR,0.00,WeatherDisplay:10.37,2013-07-21 09:59:00,
2013-07-21 05:04:00,58.8,51.3,29.92,ENE,68,3.9,4.6,76,0.00,CLR,CLR,0.00,WeatherDisplay:10.37,2013-07-21 10:04:00,
2013-07-21 05:09:00,58.8,50.9,29.92,ESE,112,4.5,5.8,75,0.00,CLR,CLR,0.00,WeatherDisplay:10.37,2013-07-21 10:09:00,
2013-07-21 05:14:00,58.8,50.9,29.92,ESE,112,2.9,3.5,75,0.00,CLR,CLR,0.00,WeatherDisplay:10.37,2013-07-21 10:14:00,
2013-07-21 05:20:00,58.8,50.9,29.92,ENE,68,3.1,3.5,75,0.00,CLR,CLR,0.00,WeatherDisplay:10.37,2013-07-21 10:20:00,
2013-07-21 05:25:00,59.0,51.1,29.92,ENE,68,2.9,3.6,75,0.00,CLR,CLR,0.00,WeatherDisplay:10.37,2013-07-21 10:25:00,
2013-07-21 05:30:00,59.2,51.3,29.92,NE,45,1.1,5.4,75,0.00,CLR,CLR,0.00,WeatherDisplay:10.37,2013-07-21 10:30:00,
2013-07-21 05:35:00,59.4,51.4,29.92,East,90,2.3,3.5,75,0.00,CLR,CLR,0.00,WeatherDisplay:10.37,2013-07-21 10:35:00,
2013-07-21 05:40:00,59.5,51.6,29.92,ESE,112,2.3,3.8,75,0.00,CLR,CLR,0.00,WeatherDisplay:10.37,2013-07-21 10:40:00,
2013-07-21 05:46:00,59.7,51.8,29.92,East,90,5.1,6.9,75,0.00,CLR,CLR,0.00,WeatherDisplay:10.37,2013-07-21 10:46:00,
2013-07-21 05:51:00,59.5,51.2,29.92,SE,135,2.9,3.5,74,0.00,CLR,CLR,0.00,WeatherDisplay:10.37,2013-07-21 10:51:00,
2013-07-21 05:56:00,59.5,51.2,29.92,ESE,112,5.2,6.9,74,0.00,CLR,CLR,0.00,WeatherDisplay:10.37,2013-07-21 10:56:00,
2013-07-21 06:01:00,59.5,51.6,29.93,ENE,68,3.1,3.5,75,0.00,CLR,CLR,0.00,WeatherDisplay:10.37,2013-07-21 11:01:00,
2013-07-21 06:06:00,59.5,51.6,29.92,ESE,112,5.2,5.8,75,0.00,CLR,CLR,0.00,WeatherDisplay:10.37,2013-07-21 11:06:00,
2013-07-21 06:11:00,59.5,52.0,29.92,East,90,4.8,5.8,76,0.00,CLR,CLR,0.00,WeatherDisplay:10.37,2013-07-21 11:11:00,
2013-07-21 06:17:00,59.5,52.0,29.92,ESE,112,6.6,9.2,76,0.00,CLR,CLR,0.00,WeatherDisplay:10.37,2013-07-21 11:17:00,
2013-07-21 06:22:00,59.5,52.0,29.92,ESE,112,6.9,9.2,76,0.00,CLR,CLR,0.00,WeatherDisplay:10.37,2013-07-21 11:22:00,
2013-07-21 06:27:00,59.4,51.8,29.92,ESE,112,2.9,3.5,76,0.00,CLR,CLR,0.00,WeatherDisplay:10.37,2013-07-21 11:27:00,
2013-07-21 06:32:00,59.2,51.6,29.92,ESE,112,5.5,5.8,76,0.00,CLR,CLR,0.00,WeatherDisplay:10.37,2013-07-21 11:32:00,
2013-07-21 06:37:00,59.2,51.6,29.92,East,90,1.7,3.5,76,0.00,CLR,CLR,0.00,WeatherDisplay:10.37,2013-07-21 11:37:00,
2013-07-21 06:42:00,59.0,51.1,29.92,ENE,68,3.6,6.9,75,0.00,CLR,CLR,0.00,WeatherDisplay:10.37,2013-07-21 11:42:00,
2013-07-21 06:48:00,58.8,50.9,29.92,NNE,22,4.3,8.1,75,0.00,CLR,CLR,0.00,WeatherDisplay:10.37,2013-07-21 11:48:00,
2013-07-21 06:53:00,58.8,50.9,29.93,ESE,112,5.7,6.9,75,0.00,CLR,CLR,0.00,WeatherDisplay:10.37,2013-07-21 11:53:00,
2013-07-21 06:58:00,58.8,50.9,29.92,ESE,112,3.3,5.8,75,0.00,CLR,CLR,0.00,WeatherDisplay:10.37,2013-07-21 11:58:00,
2013-07-21 07:03:00,59.0,51.1,29.92,ESE,112,5.7,6.9,75,0.00,CLR,CLR,0.00,WeatherDisplay:10.37,2013-07-21 12:03:00,
2013-07-21 07:08:00,59.4,51.4,29.92,East,90,5.3,8.0,75,0.00,CLR,CLR,0.00,WeatherDisplay:10.37,2013-07-21 12:08:00,
2013-07-21 07:13:00,59.5,51.6,29.92,East,90,9.1,10.4,75,0.00,CLR,CLR,0.00,WeatherDisplay:10.37,2013-07-21 12:13:00,
2013-07-21 07:18:00,59.9,51.6,29.92,ESE,112,6.0,9.2,74,0.00,CLR,CLR,0.00,WeatherDisplay:10.37,2013-07-21 12:18:00,
2013-07-21 07:23:00,60.4,52.1,29.92,SSE,158,6.0,8.1,74,0.00,CLR,CLR,0.00,WeatherDisplay:10.37,2013-07-21 12:23:00,
2013-07-21 07:29:00,61.2,52.4,29.92,ESE,112,7.0,9.2,73,0.00,CLR,CLR,0.00,WeatherDisplay:10.37,2013-07-21 12:29:00,
2013-07-21 07:34:00,61.5,52.4,29.93,East,90,6.4,9.2,72,0.00,CLR,CLR,0.00,WeatherDisplay:10.37,2013-07-21 12:34:00,
2013-07-21 07:39:00,61.7,52.2,29.93,ESE,112,6.8,8.1,71,0.00,CLR,CLR,0.00,WeatherDisplay:10.37,2013-07-21 12:39:00,
2013-07-21 07:44:00,62.2,52.7,29.93,ESE,112,6.7,9.2,71,0.00,CLR,CLR,0.00,WeatherDisplay:10.37,2013-07-21 12:44:00,
2013-07-21 07:49:00,62.6,52.3,29.93,SE,135,7.6,9.2,69,0.00,CLR,CLR,0.00,WeatherDisplay:10.37,2013-07-21 12:49:00,
2013-07-21 07:54:00,63.0,52.6,29.93,East,90,6.1,9.2,69,0.00,CLR,CLR,0.00,WeatherDisplay:10.37,2013-07-21 12:54:00,
2013-07-21 07:59:00,63.3,53.0,29.93,East,90,5.9,8.1,69,0.00,CLR,CLR,0.00,WeatherDisplay:10.37,2013-07-21 12:59:00,
2013-07-21 08:04:00,63.7,52.9,29.93,East,90,8.1,8.1,68,0.00,CLR,CLR,0.00,WeatherDisplay:10.37,2013-07-21 13:04:00,
2013-07-21 08:10:00,63.7,52.9,29.93,ENE,68,2.8,4.6,68,0.00,CLR,CLR,0.00,WeatherDisplay:10.37,2013-07-21 13:10:00,
2013-07-21 08:15:00,63.9,52.7,29.93,East,90,6.5,9.2,67,0.00,CLR,CLR,0.00,WeatherDisplay:10.37,2013-07-21 13:15:00,
2013-07-21 08:20:00,63.7,52.5,29.93,East,90,8.1,9.2,67,0.00,CLR,CLR,0.00,WeatherDisplay:10.37,2013-07-21 13:20:00,
2013-07-21 08:25:00,64.0,52.9,29.93,East,90,9.8,13.8,67,0.00,CLR,CLR,0.00,WeatherDisplay:10.37,2013-07-21 13:25:00,
2013-07-21 08:30:00,64.0,52.4,29.94,ESE,112,8.6,11.5,66,0.00,CLR,CLR,0.00,WeatherDisplay:10.37,2013-07-21 13:30:00,
2013-07-21 08:36:00,64.0,52.9,29.94,East,90,7.0,8.9,67,0.00,CLR,CLR,0.00,WeatherDisplay:10.37,2013-07-21 13:36:00,
2013-07-21 08:41:00,64.6,53.0,29.94,ESE,112,7.7,10.4,66,0.00,CLR,CLR,0.00,WeatherDisplay:10.37,2013-07-21 13:41:00,
2013-07-21 08:46:00,65.1,53.5,29.94,SSE,158,4.9,5.8,66,0.00,CLR,CLR,0.00,WeatherDisplay:10.37,2013-07-21 13:46:00,
2013-07-21 08:51:00,66.0,54.3,29.94,SE,135,6.1,8.1,66,0.00,CLR,CLR,0.00,WeatherDisplay:10.37,2013-07-21 13:51:00,
2013-07-21 08:57:00,66.4,54.3,29.93,East,90,5.9,6.9,65,0.00,CLR,CLR,0.00,WeatherDisplay:10.37,2013-07-21 13:57:00,
2013-07-21 09:02:00,67.1,54.9,29.93,East,90,4.7,5.8,65,0.00,CLR,CLR,0.00,WeatherDisplay:10.37,2013-07-21 14:02:00,
2013-07-21 09:07:00,67.6,54.6,29.93,ESE,112,7.8,10.7,63,0.00,CLR,CLR,0.00,WeatherDisplay:10.37,2013-07-21 14:07:00,
2013-07-21 09:12:00,67.8,54.8,29.93,East,90,7.4,10.4,63,0.00,CLR,CLR,0.00,WeatherDisplay:10.37,2013-07-21 14:12:00,
2013-07-21 09:17:00,67.8,54.3,29.92,ENE,68,7.2,9.2,62,0.00,CLR,CLR,0.00,WeatherDisplay:10.37,2013-07-21 14:17:00,
2013-07-21 09:22:00,67.6,54.6,29.92,East,90,3.5,6.7,63,0.00,CLR,CLR,0.00,WeatherDisplay:10.37,2013-07-21 14:22:00,
2013-07-21 09:27:00,67.3,54.3,29.92,ESE,112,6.3,8.1,63,0.00,CLR,CLR,0.00,WeatherDisplay:10.37,2013-07-21 14:27:00,
2013-07-21 09:32:00,67.1,54.1,29.92,ESE,112,8.9,11.5,63,0.00,CLR,CLR,0.00,WeatherDisplay:10.37,2013-07-21 14:32:00,
2013-07-21 09:38:00,67.3,54.7,29.92,ESE,112,3.7,5.8,64,0.00,CLR,CLR,0.00,WeatherDisplay:10.37,2013-07-21 14:38:00,
2013-07-21 09:43:00,67.8,55.2,29.92,NE,45,4.7,6.9,64,0.00,CLR,CLR,0.00,WeatherDisplay:10.37,2013-07-21 14:43:00,
2013-07-21 09:48:00,68.4,55.7,29.92,SSE,158,7.3,10.4,64,0.00,CLR,CLR,0.00,WeatherDisplay:10.37,2013-07-21 14:48:00,
2013-07-21 09:53:00,68.9,56.2,29.92,East,90,5.0,8.1,64,0.00,CLR,CLR,0.00,WeatherDisplay:10.37,2013-07-21 14:53:00,
2013-07-21 09:58:00,69.4,56.3,29.91,ESE,112,4.5,9.2,63,0.00,CLR,CLR,0.00,WeatherDisplay:10.37,2013-07-21 14:58:00,
2013-07-21 10:04:00,70.0,56.8,29.92,ESE,112,5.8,11.5,63,0.00,CLR,CLR,0.00,WeatherDisplay:10.37,2013-07-21 15:04:00,
2013-07-21 10:09:00,70.5,56.9,29.92,ESE,112,5.3,6.9,62,0.00,CLR,CLR,0.00,WeatherDisplay:10.37,2013-07-21 15:09:00,
2013-07-21 10:14:00,70.7,57.0,29.91,ESE,112,7.1,13.8,62,0.00,CLR,CLR,0.00,WeatherDisplay:10.37,2013-07-21 15:14:00,
2013-07-21 10:19:00,71.2,57.1,29.92,ESE,112,4.1,8.1,61,0.00,CLR,CLR,0.00,WeatherDisplay:10.37,2013-07-21 15:19:00,
2013-07-21 10:24:00,71.8,57.6,29.91,ESE,112,6.2,11.5,61,0.00,CLR,CLR,0.00,WeatherDisplay:10.37,2013-07-21 15:24:00,
2013-07-21 10:29:00,72.1,57.9,29.91,East,90,2.0,4.6,61,0.00,CLR,CLR,0.00,WeatherDisplay:10.37,2013-07-21 15:29:00,
2013-07-21 10:34:00,72.1,57.5,29.91,East,90,4.4,8.1,60,0.00,CLR,CLR,0.00,WeatherDisplay:10.37,2013-07-21 15:34:00,
2013-07-21 10:40:00,72.0,57.3,29.91,SE,135,3.3,5.8,60,0.00,CLR,CLR,0.00,WeatherDisplay:10.37,2013-07-21 15:40:00,
2013-07-21 10:45:00,72.1,57.9,29.91,East,90,4.5,8.1,61,0.00,CLR,CLR,0.00,WeatherDisplay:10.37,2013-07-21 15:45:00,
2013-07-21 10:50:00,72.7,58.5,29.91,ESE,112,4.5,10.4,61,0.00,CLR,CLR,0.00,WeatherDisplay:10.37,2013-07-21 15:50:00,
2013-07-21 10:55:00,73.8,59.0,29.91,East,90,4.4,4.6,60,0.00,CLR,CLR,0.00,WeatherDisplay:10.37,2013-07-21 15:55:00,
2013-07-21 11:00:00,74.5,59.2,29.92,ENE,68,2.5,3.5,59,0.00,CLR,CLR,0.00,WeatherDisplay:10.37,2013-07-21 16:00:00,
2013-07-21 11:05:00,75.4,59.6,29.91,ESE,112,5.7,5.8,58,0.00,CLR,CLR,0.00,WeatherDisplay:10.37,2013-07-21 16:05:00,
2013-07-21 11:10:00,75.7,59.9,29.91,SSE,158,6.0,6.0,58,0.00,CLR,CLR,0.00,WeatherDisplay:10.37,2013-07-21 16:10:00,
2013-07-21 11:15:00,76.3,60.4,29.91,SE,135,5.0,8.1,58,0.00,CLR,CLR,0.00,WeatherDisplay:10.37,2013-07-21 16:15:00,
2013-07-21 11:21:00,77.2,61.3,29.91,East,90,5.9,6.9,58,0.00,CLR,CLR,0.00,WeatherDisplay:10.37,2013-07-21 16:21:00,
2013-07-21 11:26:00,77.7,60.8,29.90,SE,135,7.0,11.5,56,0.00,CLR,CLR,0.00,WeatherDisplay:10.37,2013-07-21 16:26:00,
2013-07-21 11:31:00,77.9,61.4,29.90,ESE,112,6.8,10.3,57,0.00,CLR,CLR,0.00,WeatherDisplay:10.37,2013-07-21 16:31:00,
2013-07-21 11:36:00,78.4,61.9,29.90,East,90,7.2,9.2,57,0.00,CLR,CLR,0.00,WeatherDisplay:10.37,2013-07-21 16:36:00,
2013-07-21 11:39:00,78.6,61.6,29.91,SE,135,8.2,10.4,56,0.00,CLR,CLR,0.00,WeatherDisplay:10.37,2013-07-21 16:39:00,
2013-07-21 11:44:00,79.0,61.4,29.90,East,90,9.7,9.7,55,0.00,CLR,CLR,0.00,WeatherDisplay:10.37,2013-07-21 16:44:00,
2013-07-21 11:49:00,79.0,61.4,29.90,East,90,7.6,10.4,55,0.00,CLR,CLR,0.00,WeatherDisplay:10.37,2013-07-21 16:49:00,
2013-07-21 11:54:00,78.6,61.1,29.91,ESE,112,8.8,9.2,55,0.00,CLR,CLR,0.00,WeatherDisplay:10.37,2013-07-21 16:54:00,
2013-07-21 11:59:00,77.9,60.9,29.91,ESE,112,4.1,13.8,56,0.00,CLR,CLR,0.00,WeatherDisplay:10.37,2013-07-21 16:59:00,
2013-07-21 12:04:00,77.9,61.9,29.90,East,90,5.1,8.1,58,0.00,CLR,CLR,0.00,WeatherDisplay:10.37,2013-07-21 17:04:00,
2013-07-21 12:09:00,77.7,62.2,29.90,East,90,7.4,8.7,59,0.00,CLR,CLR,0.00,WeatherDisplay:10.37,2013-07-21 17:09:00,
2013-07-21 12:14:00,77.7,61.8,29.90,ESE,112,10.8,11.5,58,0.00,CLR,CLR,0.00,WeatherDisplay:10.37,2013-07-21 17:14:00,
2013-07-21 12:20:00,77.5,61.6,29.90,ESE,112,4.9,8.1,58,0.00,CLR,CLR,0.00,WeatherDisplay:10.37,2013-07-21 17:20:00,
2013-07-21 12:25:00,77.2,61.7,29.90,SE,135,7.1,12.7,59,0.00,CLR,CLR,0.00,WeatherDisplay:10.37,2013-07-21 17:25:00,
2013-07-21 12:30:00,77.2,62.7,29.89,South,180,9.1,12.7,61,0.00,CLR,CLR,0.00,WeatherDisplay:10.37,2013-07-21 17:30:00,
2013-07-21 12:35:00,77.5,63.0,29.89,East,90,4.9,6.9,61,0.00,CLR,CLR,0.00,WeatherDisplay:10.37,2013-07-21 17:35:00,
2013-07-21 12:40:00,77.7,62.7,29.89,SSE,158,6.4,15.0,60,0.00,CLR,CLR,0.00,WeatherDisplay:10.37,2013-07-21 17:40:00,
2013-07-21 12:46:00,77.9,63.4,29.89,SSE,158,4.6,6.9,61,0.00,CLR,CLR,0.00,WeatherDisplay:10.37,2013-07-21 17:46:00,
2013-07-21 12:51:00,77.9,62.9,29.89,ESE,112,7.0,10.4,60,0.00,CLR,CLR,0.00,WeatherDisplay:10.37,2013-07-21 17:51:00,
2013-07-21 12:56:00,77.9,63.4,29.89,ESE,112,6.4,9.2,61,0.00,CLR,CLR,0.00,WeatherDisplay:10.37,2013-07-21 17:56:00,
2013-07-21 13:01:00,78.4,63.9,29.88,SSW,202,7.3,10.4,61,0.00,CLR,CLR,0.00,WeatherDisplay:10.37,2013-07-21 18:01:00,
2013-07-21 13:06:00,79.0,63.9,29.88,SE,135,7.6,9.2,60,0.00,CLR,CLR,0.00,WeatherDisplay:10.37,2013-07-21 18:06:00,
2013-07-21 13:12:00,79.3,63.8,29.88,ESE,112,5.0,9.2,59,0.00,CLR,CLR,0.00,WeatherDisplay:10.37,2013-07-21 18:12:00,
2013-07-21 13:17:00,79.3,63.8,29.88,ESE,112,9.4,13.4,59,0.00,CLR,CLR,0.00,WeatherDisplay:10.37,2013-07-21 18:17:00,
2013-07-21 13:22:00,79.5,63.9,29.88,ESE,112,11.5,15.0,59,0.00,CLR,CLR,0.00,WeatherDisplay:10.37,2013-07-21 18:22:00,
2013-07-21 13:27:00,80.8,65.1,29.88,ESE,112,12.5,12.7,59,0.00,CLR,CLR,0.00,WeatherDisplay:10.37,2013-07-21 18:27:00,
2013-07-21 13:32:00,81.5,64.8,29.88,ESE,112,7.5,11.5,57,0.00,CLR,CLR,0.00,WeatherDisplay:10.37,2013-07-21 18:32:00,
2013-07-21 13:38:00,82.2,65.0,29.88,NE,45,8.0,13.8,56,0.00,CLR,CLR,0.00,WeatherDisplay:10.37,2013-07-21 18:38:00,
2013-07-21 13:43:00,82.6,64.8,29.88,East,90,8.5,8.5,55,0.00,CLR,CLR,0.00,WeatherDisplay:10.37,2013-07-21 18:43:00,
2013-07-21 13:48:00,83.1,65.3,29.88,ESE,112,9.3,10.4,55,0.00,CLR,CLR,0.00,WeatherDisplay:10.37,2013-07-21 18:48:00,
2013-07-21 13:53:00,83.3,64.9,29.87,ESE,112,13.2,18.5,54,0.00,CLR,CLR,0.00,WeatherDisplay:10.37,2013-07-21 18:53:00,
2013-07-21 13:58:00,83.1,64.8,29.87,ESE,112,10.9,13.8,54,0.00,CLR,CLR,0.00,WeatherDisplay:10.37,2013-07-21 18:58:00,
2013-07-21 14:04:00,82.9,64.6,29.87,SSE,158,10.3,12.7,54,0.00,CLR,CLR,0.00,WeatherDisplay:10.37,2013-07-21 19:04:00,
2013-07-21 14:09:00,82.6,64.8,29.86,East,90,7.8,11.5,55,0.00,CLR,CLR,0.00,WeatherDisplay:10.37,2013-07-21 19:09:00,
2013-07-21 14:14:00,82.6,65.3,29.86,ESE,112,11.3,12.7,56,0.00,CLR,CLR,0.00,WeatherDisplay:10.37,2013-07-21 19:14:00,
2013-07-21 14:19:00,82.2,63.9,29.85,ESE,112,8.4,10.4,54,0.00,CLR,CLR,0.00,WeatherDisplay:10.37,2013-07-21 19:19:00,
2013-07-21 14:24:00,82.2,65.0,29.85,SSE,158,7.9,9.2,56,0.00,CLR,CLR,0.00,WeatherDisplay:10.37,2013-07-21 19:24:00,
2013-07-21 14:29:00,82.2,65.0,29.86,ENE,68,11.1,11.5,56,0.00,CLR,CLR,0.00,WeatherDisplay:10.37,2013-07-21 19:29:00,
2013-07-21 14:35:00,82.9,66.1,29.85,ESE,112,12.4,17.3,57,0.00,CLR,CLR,0.00,WeatherDisplay:10.37,2013-07-21 19:35:00,
2013-07-21 14:40:00,83.3,65.4,29.85,SE,135,5.6,9.2,55,0.00,CLR,CLR,0.00,WeatherDisplay:10.37,2013-07-21 19:40:00,
2013-07-21 14:45:00,83.7,66.3,29.85,South,180,5.2,6.9,56,0.00,CLR,CLR,0.00,WeatherDisplay:10.37,2013-07-21 19:45:00,
2013-07-21 14:50:00,84.2,66.3,29.85,SE,135,4.7,10.4,55,0.00,CLR,CLR,0.00,WeatherDisplay:10.37,2013-07-21 19:50:00,
2013-07-21 14:55:00,84.7,66.3,29.85,ESE,112,7.6,11.6,54,0.00,CLR,CLR,0.00,WeatherDisplay:10.37,2013-07-21 19:55:00,
2013-07-21 15:00:00,84.9,66.4,29.84,SSE,158,7.8,10.9,54,0.00,CLR,CLR,0.00,WeatherDisplay:10.37,2013-07-21 20:00:00,
2013-07-21 15:06:00,85.1,66.6,29.84,ESE,112,8.3,15.0,54,0.00,CLR,CLR,0.00,WeatherDisplay:10.37,2013-07-21 20:06:00,
2013-07-21 15:11:00,85.1,66.0,29.84,East,90,11.4,14.3,53,0.00,CLR,CLR,0.00,WeatherDisplay:10.37,2013-07-21 20:11:00,
2013-07-21 15:16:00,85.3,66.2,29.84,ESE,112,6.3,9.2,53,0.00,CLR,CLR,0.00,WeatherDisplay:10.37,2013-07-21 20:16:00,
2013-07-21 15:21:00,85.3,65.7,29.85,East,90,5.0,10.4,52,0.00,CLR,CLR,0.00,WeatherDisplay:10.37,2013-07-21 20:21:00,
2013-07-21 15:27:00,85.3,66.8,29.85,SSE,158,3.2,6.9,54,0.00,CLR,CLR,0.00,WeatherDisplay:10.37,2013-07-21 20:27:00,
2013-07-21 15:32:00,86.4,67.2,29.84,East,90,9.3,12.7,53,0.00,CLR,CLR,0.00,WeatherDisplay:10.37,2013-07-21 20:32:00,
2013-07-21 15:37:00,86.7,67.0,29.84,SSE,158,6.5,12.7,52,0.00,CLR,CLR,0.00,WeatherDisplay:10.37,2013-07-21 20:37:00,
2013-07-21 15:42:00,86.5,66.3,29.84,East,90,9.3,13.8,51,0.00,CLR,CLR,0.00,WeatherDisplay:10.37,2013-07-21 20:42:00,
2013-07-21 15:47:00,86.2,65.9,29.84,ESE,112,8.6,11.5,51,0.00,CLR,CLR,0.00,WeatherDisplay:10.37,2013-07-21 20:47:00,
2013-07-21 15:53:00,85.6,66.0,29.84,SE,135,9.0,11.5,52,0.00,CLR,CLR,0.00,WeatherDisplay:10.37,2013-07-21 20:53:00,
2013-07-21 15:58:00,84.7,65.7,29.84,South,180,4.9,6.9,53,0.00,CLR,CLR,0.00,WeatherDisplay:10.37,2013-07-21 20:58:00,
2013-07-21 16:03:00,84.9,66.4,29.84,ESE,112,7.8,12.7,54,0.00,CLR,CLR,0.00,WeatherDisplay:10.37,2013-07-21 21:03:00,
2013-07-21 16:08:00,85.6,66.0,29.84,SSE,158,5.9,9.2,52,0.00,CLR,CLR,0.00,WeatherDisplay:10.37,2013-07-21 21:08:00,
2013-07-21 16:13:00,85.8,66.2,29.83,SE,135,6.2,8.1,52,0.00,CLR,CLR,0.00,WeatherDisplay:10.37,2013-07-21 21:13:00,
2013-07-21 16:15:00,86.0,66.3,29.83,South,180,8.6,10.4,52,0.00,CLR,CLR,0.00,WeatherDisplay:10.37,2013-07-21 21:15:00,
2013-07-21 16:20:00,86.2,66.5,29.83,SE,135,6.2,9.2,52,0.00,CLR,CLR,0.00,WeatherDisplay:10.37,2013-07-21 21:20:00,
2013-07-21 16:25:00,86.0,66.9,29.83,SE,135,5.4,6.9,53,0.00,CLR,CLR,0.00,WeatherDisplay:10.37,2013-07-21 21:25:00,
2013-07-21 16:31:00,86.2,66.5,29.83,SE,135,2.9,6.9,52,0.00,CLR,CLR,0.00,WeatherDisplay:10.37,2013-07-21 21:31:00,
2013-07-21 16:36:00,86.5,66.8,29.83,SE,135,7.9,14.1,52,0.00,CLR,CLR,0.00,WeatherDisplay:10.37,2013-07-21 21:36:00,
2013-07-21 16:41:00,86.0,66.9,29.82,ENE,68,3.6,5.8,53,0.00,CLR,CLR,0.00,WeatherDisplay:10.37,2013-07-21 21:41:00,
2013-07-21 16:46:00,86.5,67.4,29.83,ESE,112,9.8,13.8,53,0.00,CLR,CLR,0.00,WeatherDisplay:10.37,2013-07-21 21:46:00,
2013-07-21 16:51:00,87.6,67.8,29.83,SE,135,7.3,11.5,52,0.00,CLR,CLR,0.00,WeatherDisplay:10.37,2013-07-21 21:51:00,
2013-07-21 16:57:00,88.9,68.4,29.82,SE,135,9.0,11.5,51,0.00,CLR,CLR,0.00,WeatherDisplay:10.37,2013-07-21 21:57:00,
2013-07-21 17:02:00,90.1,68.4,29.82,SE,135,6.9,10.3,49,0.00,CLR,CLR,0.00,WeatherDisplay:10.37,2013-07-21 22:02:00,
2013-07-21 17:07:00,90.5,68.1,29.82,ESE,112,9.5,18.4,48,0.00,CLR,CLR,0.00,WeatherDisplay:10.37,2013-07-21 22:07:00,
2013-07-21 17:12:00,90.3,67.4,29.82,East,90,7.4,11.5,47,0.00,CLR,CLR,0.00,WeatherDisplay:10.37,2013-07-21 22:12:00,
2013-07-21 17:17:00,90.0,68.2,29.82,SE,135,9.0,10.4,49,0.00,CLR,CLR,0.00,WeatherDisplay:10.37,2013-07-21 22:17:00,
2013-07-21 17:22:00,90.5,68.7,29.82,ESE,112,9.0,10.4,49,0.00,CLR,CLR,0.00,WeatherDisplay:10.37,2013-07-21 22:22:00,
2013-07-21 17:28:00,91.2,68.8,29.82,ESE,112,6.9,10.4,48,0.00,CLR,CLR,0.00,WeatherDisplay:10.37,2013-07-21 22:28:00,
2013-07-21 17:33:00,91.2,68.2,29.82,ESE,112,6.6,11.5,47,0.00,CLR,CLR,0.00,WeatherDisplay:10.37,2013-07-21 22:33:00,
2013-07-21 17:38:00,91.2,68.2,29.82,SE,135,5.5,15.0,47,0.00,CLR,CLR,0.00,WeatherDisplay:10.37,2013-07-21 22:38:00,
2013-07-21 17:43:00,91.6,69.1,29.82,SSE,158,5.6,8.1,48,0.00,CLR,CLR,0.00,WeatherDisplay:10.37,2013-07-21 22:43:00,
2013-07-21 17:48:00,91.8,68.7,29.81,SE,135,7.4,9.2,47,0.00,CLR,CLR,0.00,WeatherDisplay:10.37,2013-07-21 22:48:00,
2013-07-21 17:53:00,91.0,67.4,29.81,SE,135,8.0,11.5,46,0.00,CLR,CLR,0.00,WeatherDisplay:10.37,2013-07-21 22:53:00,
2013-07-21 17:58:00,89.4,66.5,29.81,ESE,112,7.9,11.4,47,0.00,CLR,CLR,0.00,WeatherDisplay:10.37,2013-07-21 22:58:00,
2013-07-21 18:03:00,88.2,66.6,29.80,SSE,158,4.4,5.8,49,0.00,CLR,CLR,0.00,WeatherDisplay:10.37,2013-07-21 23:03:00,
2013-07-21 18:08:00,87.4,66.5,29.80,SE,135,5.2,6.9,50,0.00,CLR,CLR,0.00,WeatherDisplay:10.37,2013-07-21 23:08:00,
2013-07-21 18:13:00,88.5,68.1,29.80,East,90,6.6,10.4,51,0.00,CLR,CLR,0.00,WeatherDisplay:10.37,2013-07-21 23:13:00,
2013-07-21 18:18:00,90.3,68.6,29.80,SE,135,4.3,6.9,49,0.00,CLR,CLR,0.00,WeatherDisplay:10.37,2013-07-21 23:18:00,
2013-07-21 18:23:00,91.0,68.0,29.80,SE,135,7.5,13.8,47,0.00,CLR,CLR,0.00,WeatherDisplay:10.37,2013-07-21 23:23:00,
2013-07-21 18:28:00,90.7,67.7,29.79,SE,135,6.4,9.2,47,0.00,CLR,CLR,0.00,WeatherDisplay:10.37,2013-07-21 23:28:00,
2013-07-21 18:33:00,91.6,69.1,29.80,East,90,10.9,11.5,48,0.00,CLR,CLR,0.00,WeatherDisplay:10.37,2013-07-21 23:33:00,
2013-07-21 18:39:00,92.3,69.2,29.79,East,90,10.3,15.4,47,0.00,CLR,CLR,0.00,WeatherDisplay:10.37,2013-07-21 23:39:00,
2013-07-21 18:44:00,91.9,68.2,29.79,ESE,112,6.4,8.1,46,0.00,CLR,CLR,0.00,WeatherDisplay:10.37,2013-07-21 23:44:00,
2013-07-21 18:49:00,90.5,67.5,29.79,ESE,112,6.7,10.4,47,0.00,CLR,CLR,0.00,WeatherDisplay:10.37,2013-07-21 23:49:00,
2013-07-21 18:54:00,89.8,67.5,29.79,SSE,158,9.4,11.5,48,0.00,CLR,CLR,0.00,WeatherDisplay:10.37,2013-07-21 23:54:00,
2013-07-21 18:59:00,89.8,67.5,29.79,East,90,11.5,11.5,48,0.00,CLR,CLR,0.00,WeatherDisplay:10.37,2013-07-21 23:59:00,
2013-07-21 19:04:00,90.3,68.0,29.79,ESE,112,5.6,6.9,48,0.00,CLR,CLR,0.00,WeatherDisplay:10.37,2013-07-22 00:04:00,
2013-07-21 19:10:00,91.2,68.2,29.79,SSE,158,7.5,8.1,47,0.00,CLR,CLR,0.00,WeatherDisplay:10.37,2013-07-22 00:10:00,
2013-07-21 19:15:00,90.5,67.5,29.78,South,180,11.1,18.4,47,0.00,CLR,CLR,0.00,WeatherDisplay:10.37,2013-07-22 00:15:00,
2013-07-21 19:20:00,90.1,67.8,29.79,ESE,112,5.4,7.2,48,0.00,CLR,CLR,0.00,WeatherDisplay:10.37,2013-07-22 00:20:00,
2013-07-21 19:25:00,90.1,67.8,29.78,SE,135,8.0,13.8,48,0.00,CLR,CLR,0.00,WeatherDisplay:10.37,2013-07-22 00:25:00,
2013-07-21 19:30:00,90.1,67.8,29.79,ESE,112,7.9,9.2,48,0.00,CLR,CLR,0.00,WeatherDisplay:10.37,2013-07-22 00:30:00,
2013-07-21 19:35:00,90.3,68.6,29.78,ESE,112,8.5,9.2,49,0.00,CLR,CLR,0.00,WeatherDisplay:10.37,2013-07-22 00:35:00,
2013-07-21 19:40:00,91.2,68.8,29.79,SSE,158,5.7,12.7,48,0.00,CLR,CLR,0.00,WeatherDisplay:10.37,2013-07-22 00:40:00,
2013-07-21 19:45:00,91.4,69.0,29.79,ESE,112,10.3,11.5,48,0.00,CLR,CLR,0.00,WeatherDisplay:10.37,2013-07-22 00:45:00,
2013-07-21 19:50:00,90.9,68.5,29.79,ESE,112,7.5,8.1,48,0.00,CLR,CLR,0.00,WeatherDisplay:10.37,2013-07-22 00:50:00,
2013-07-21 19:56:00,89.8,67.5,29.79,SE,135,4.5,6.9,48,0.00,CLR,CLR,0.00,WeatherDisplay:10.37,2013-07-22 00:56:00,
2013-07-21 20:01:00,88.0,67.0,29.80,East,90,5.8,6.9,50,0.00,CLR,CLR,0.00,WeatherDisplay:10.37,2013-07-22 01:01:00,
2013-07-21 20:06:00,87.4,67.1,29.80,SSE,158,4.4,5.8,51,0.00,CLR,CLR,0.00,WeatherDisplay:10.37,2013-07-22 01:06:00,
2013-07-21 20:11:00,86.4,66.7,29.80,SE,135,6.7,8.1,52,0.00,CLR,CLR,0.00,WeatherDisplay:10.37,2013-07-22 01:11:00,
2013-07-21 20:16:00,84.9,65.9,29.80,East,90,5.9,9.2,53,0.00,CLR,CLR,0.00,WeatherDisplay:10.37,2013-07-22 01:16:00,
2013-07-21 20:22:00,83.7,65.3,29.80,SSE,158,8.6,11.5,54,0.00,CLR,CLR,0.00,WeatherDisplay:10.37,2013-07-22 01:22:00,
2013-07-21 20:27:00,82.6,65.3,29.80,ESE,112,5.1,7.4,56,0.00,CLR,CLR,0.00,WeatherDisplay:10.37,2013-07-22 01:27:00,
2013-07-21 20:32:00,81.5,64.8,29.80,East,90,4.7,9.2,57,0.00,CLR,CLR,0.00,WeatherDisplay:10.37,2013-07-22 01:32:00,
2013-07-21 20:37:00,80.4,64.3,29.80,SE,135,5.2,5.8,58,0.00,CLR,CLR,0.00,WeatherDisplay:10.37,2013-07-22 01:37:00,
2013-07-21 20:43:00,79.7,64.1,29.80,SE,135,5.1,5.8,59,0.00,CLR,CLR,0.00,WeatherDisplay:10.37,2013-07-22 01:43:00,
2013-07-21 20:48:00,79.0,63.9,29.79,SE,135,4.9,6.9,60,0.00,CLR,CLR,0.00,WeatherDisplay:10.37,2013-07-22 01:48:00,
2013-07-21 20:53:00,78.4,64.3,29.80,SE,135,4.0,5.8,62,0.00,CLR,CLR,0.00,WeatherDisplay:10.37,2013-07-22 01:53:00,
2013-07-21 20:58:00,77.7,64.1,29.79,SSE,158,4.1,5.8,63,0.00,CLR,CLR,0.00,WeatherDisplay:10.37,2013-07-22 01:58:00,
2013-07-21 21:03:00,77.0,63.9,29.79,SSE,158,5.9,7.4,64,0.00,CLR,CLR,0.00,WeatherDisplay:10.37,2013-07-22 02:03:00,
2013-07-21 21:08:00,76.6,64.0,29.79,SSE,158,4.4,6.9,65,0.00,CLR,CLR,0.00,WeatherDisplay:10.37,2013-07-22 02:08:00,
2013-07-21 21:14:00,76.1,63.9,29.79,SSE,158,4.5,6.9,66,0.00,CLR,CLR,0.00,WeatherDisplay:10.37,2013-07-22 02:14:00,
2013-07-21 21:19:00,75.7,64.0,29.80,SE,135,4.0,5.1,67,0.00,CLR,CLR,0.00,WeatherDisplay:10.37,2013-07-22 02:19:00,
2013-07-21 21:24:00,75.4,63.7,29.79,SSE,158,7.7,10.5,67,0.00,CLR,CLR,0.00,WeatherDisplay:10.37,2013-07-22 02:24:00,
2013-07-21 21:29:00,75.0,63.7,29.79,East,90,6.1,9.2,68,0.00,CLR,CLR,0.00,WeatherDisplay:10.37,2013-07-22 02:29:00,
2013-07-21 21:35:00,74.8,64.0,29.79,SE,135,7.6,7.6,69,0.00,CLR,CLR,0.00,WeatherDisplay:10.37,2013-07-22 02:35:00,
2013-07-21 21:40:00,74.5,64.1,29.79,SSE,158,3.7,4.6,70,0.00,CLR,CLR,0.00,WeatherDisplay:10.37,2013-07-22 02:40:00,
2013-07-21 21:45:00,74.3,64.3,29.79,SSE,158,5.7,8.1,71,0.00,CLR,CLR,0.00,WeatherDisplay:10.37,2013-07-22 02:45:00,
2013-07-21 21:50:00,74.1,64.5,29.79,ESE,112,6.1,8.1,72,0.00,CLR,CLR,0.00,WeatherDisplay:10.37,2013-07-22 02:50:00,
2013-07-21 21:55:00,73.8,64.2,29.79,SSE,158,7.2,10.4,72,0.00,CLR,CLR,0.00,WeatherDisplay:10.37,2013-07-22 02:55:00,
2013-07-21 22:00:00,73.6,64.4,29.79,SSE,158,5.4,5.4,73,0.00,CLR,CLR,0.00,WeatherDisplay:10.37,2013-07-22 03:00:00,
2013-07-21 22:06:00,73.2,64.4,29.79,SE,135,4.7,6.9,74,0.00,CLR,CLR,0.00,WeatherDisplay:10.37,2013-07-22 03:06:00,
2013-07-21 22:07:00,73.2,64.4,29.79,SE,135,6.8,10.4,74,0.00,CLR,CLR,0.00,WeatherDisplay:10.37,2013-07-22 03:07:00,
2013-07-21 22:12:00,73.0,64.6,29.79,SSE,158,3.9,4.6,75,0.00,CLR,CLR,0.00,WeatherDisplay:10.37,2013-07-22 03:12:00,
2013-07-21 22:18:00,72.7,64.3,29.79,SE,135,5.0,9.2,75,0.00,CLR,CLR,0.00,WeatherDisplay:10.37,2013-07-22 03:18:00,
2013-07-21 22:23:00,72.7,64.7,29.79,SE,135,4.4,5.8,76,0.00,CLR,CLR,0.00,WeatherDisplay:10.37,2013-07-22 03:23:00,
2013-07-21 22:28:00,72.3,64.7,29.79,SE,135,5.7,6.9,77,0.00,CLR,CLR,0.00,WeatherDisplay:10.37,2013-07-22 03:28:00,
2013-07-21 22:33:00,72.3,64.7,29.79,SE,135,3.4,4.6,77,0.00,CLR,CLR,0.00,WeatherDisplay:10.37,2013-07-22 03:33:00,
2013-07-21 22:38:00,72.1,64.5,29.79,SE,135,4.6,4.6,77,0.00,CLR,CLR,0.00,WeatherDisplay:10.37,2013-07-22 03:38:00,
2013-07-21 22:43:00,72.1,64.9,29.79,SSE,158,4.7,6.9,78,0.00,CLR,CLR,0.00,WeatherDisplay:10.37,2013-07-22 03:43:00,
2013-07-21 22:48:00,72.0,64.7,29.78,South,180,5.3,8.1,78,0.00,CLR,CLR,0.00,WeatherDisplay:10.37,2013-07-22 03:48:00,
2013-07-21 22:53:00,71.8,64.9,29.77,South,180,5.6,6.9,79,0.00,CLR,CLR,0.00,WeatherDisplay:10.37,2013-07-22 03:53:00,
2013-07-21 22:58:00,71.8,64.9,29.78,SSE,158,5.1,8.1,79,0.00,CLR,CLR,0.00,WeatherDisplay:10.37,2013-07-22 03:58:00,
2013-07-21 23:01:00,71.8,64.9,29.78,SE,135,8.0,10.4,79,0.00,CLR,CLR,0.00,WeatherDisplay:10.37,2013-07-22 04:01:00,
2013-07-21 23:02:00,71.8,64.9,29.77,SSE,158,6.5,10.4,79,0.00,CLR,CLR,0.00,WeatherDisplay:10.37,2013-07-22 04:02:00,
2013-07-21 23:04:00,71.8,64.9,29.77,SSE,158,4.7,10.4,79,0.00,CLR,CLR,0.00,WeatherDisplay:10.37,2013-07-22 04:04:00,
2013-07-21 23:09:00,71.8,64.9,29.77,South,180,3.5,6.9,79,0.00,CLR,CLR,0.00,WeatherDisplay:10.37,2013-07-22 04:09:00,
2013-07-21 23:14:00,71.6,64.7,29.77,SSE,158,5.6,8.3,79,0.00,CLR,CLR,0.00,WeatherDisplay:10.37,2013-07-22 04:14:00,
2013-07-21 23:19:00,71.4,64.6,29.77,SSE,158,5.7,9.2,79,0.00,CLR,CLR,0.00,WeatherDisplay:10.37,2013-07-22 04:19:00,
2013-07-21 23:24:00,71.4,64.6,29.77,SSE,158,5.2,10.4,79,0.00,CLR,CLR,0.00,WeatherDisplay:10.37,2013-07-22 04:24:00,
2013-07-21 23:30:00,71.4,64.9,29.77,SSE,158,8.1,10.4,80,0.00,CLR,CLR,0.00,WeatherDisplay:10.37,2013-07-22 04:30:00,
2013-07-21 23:35:00,71.2,64.8,29.77,SSE,158,9.1,11.5,80,0.00,CLR,CLR,0.00,WeatherDisplay:10.37,2013-07-22 04:35:00,
2013-07-21 23:40:00,71.2,64.8,29.77,South,180,5.0,8.1,80,0.00,CLR,CLR,0.00,WeatherDisplay:10.37,2013-07-22 04:40:00,
2013-07-21 23:45:00,71.1,64.9,29.77,South,180,4.0,4.7,81,0.00,CLR,CLR,0.00,WeatherDisplay:10.37,2013-07-22 04:45:00,
2013-07-21 23:50:00,70.9,64.8,29.77,SE,135,6.0,8.1,81,0.00,CLR,CLR,0.00,WeatherDisplay:10.37,2013-07-22 04:50:00,
2013-07-21 23:55:00,70.9,64.8,29.77,SSE,158,5.8,6.9,81,0.00,CLR,CLR,0.00,WeatherDisplay:10.37,2013-07-22 04:55:00,